This is the latest recevied weather packets stored in our database for station/object N5SRF. If no packets are shown the sender has not sent any weather packets the latest 10 day(s).
| Time | Temp. | Humidity | Pressure | Rain* | Wind** | Luminosity | Snow |
|---|---|---|---|---|---|---|---|
| 1787934217 | 35.56° C | 64% | 1021.9 hPa | 0 mm | - | 672 W/m² | - |
| 1787933916 | 35.56° C | 57% | 1021.5 hPa | 0 mm | - | 645 W/m² | - |
| 1787933615 | 34.44° C | 62% | 1021.6 hPa | 0 mm | - | 627 W/m² | - |
| 1787933310 | 33.89° C | 63% | 1021.8 hPa | 0 mm | - | 616 W/m² | - |
| 1787933009 | 33.89° C | 63% | 1021.5 hPa | 0 mm | - | 605 W/m² | - |
| 1787932708 | 33.89° C | 63% | 1021.6 hPa | 0 mm | - | 595 W/m² | - |
| 1787932403 | 32.78° C | 65% | 1021.5 hPa | 0 mm | - | 577 W/m² | - |
| 1787932098 | 33.33° C | 65% | 1021.4 hPa | 0 mm | - | 569 W/m² | - |
| 1787931797 | 33.33° C | 65% | 1021.6 hPa | 0 mm | - | 541 W/m² | - |
| 1787931497 | 32.78° C | 68% | 1021.6 hPa | 0 mm | - | 488 W/m² | - |
| 1787931191 | 33.33° C | 67% | 1021.6 hPa | 0 mm | - | 506 W/m² | - |
| 1787930890 | 33.89° C | 66% | 1021.7 hPa | 0 mm | - | 514 W/m² | - |
| 1787930584 | 33.33° C | 66% | 1021.7 hPa | 0 mm | - | 506 W/m² | - |
| 1787930279 | 32.22° C | 68% | 1021.5 hPa | 0 mm | - | 478 W/m² | - |
| 1787929974 | 32.22° C | 71% | 1021.5 hPa | 0 mm | - | 459 W/m² | - |
| 1787929673 | 33.33° C | 67% | 1021.4 hPa | 0 mm | - | 459 W/m² | - |
| 1787929368 | 32.78° C | 69% | 1021.2 hPa | 0 mm | - | 444 W/m² | - |
| 1787929065 | 33.33° C | 68% | 1021.1 hPa | 0 mm | - | 430 W/m² | - |
| 1787928762 | 32.78° C | 70% | 1021.4 hPa | 0 mm | - | 408 W/m² | - |
| 1787928460 | 32.78° C | 69% | 1021.2 hPa | 0 mm | - | 395 W/m² | - |
| 1787928158 | 32.78° C | 70% | 1021.1 hPa | 0 mm | - | 377 W/m² | - |
| 1787927853 | 32.22° C | 72% | 1021.3 hPa | 0 mm | - | 363 W/m² | - |
| 1787927547 | 31.67° C | 73% | 1021.1 hPa | 0 mm | - | 345 W/m² | - |
| 1787927242 | 32.22° C | 72% | 1021.3 hPa | 0 mm | - | 327 W/m² | - |
| 1787926938 | 31.67° C | 74% | 1021.2 hPa | 0 mm | - | 312 W/m² | - |
* Rain latest hour (hover to see other rain measurements)
** Current wind speed in m/s (hover to see current wind gust speed)